Aurelia — PB5046 — position and weather

sailwx.info

Track history (hours):
 
Tides and Currents Weather Stations Pressure Air Temp Water Temp Dewpoint Dewpoint Depression Visibility Wind Speed Wind Dir Waves Ship Positions

Aurelia

Last reported at 2016-May-24 19:14 UTC. Time now 2016-May-24 19:35 UTC.
Position N 53°59' E 008°15'.

Length 32 m; draft 3.8 m.

Type: Pleasure craft. MMSI: 244630125.

Date/timePositionNaut miles runAvg speedWind from/ knotsBaromVisibWave heightAir tempDewpointWater temp
2016-May-24 19:14N 53°59' E 008°15'5 7.6
2016-May-24 18:32N 53°58' E 008°06'17 7.2
2016-May-24 16:07N 53°54' E 007°38'3 5.3
2016-May-24 15:33N 53°53' E 007°33'6 6.0
2016-May-24 14:33N 53°51' E 007°23'7 7.4
2016-May-24 13:33N 53°48' E 007°11'8 7.8
2016-May-24 12:33N 53°46' E 006°59'9 8.7
2016-May-24 11:33N 53°43' E 006°45'8 8.4
2016-May-24 10:33N 53°40' E 006°32'9 8.6
2016-May-24 09:33N 53°39' E 006°17'9 8.8
2016-May-24 08:32N 53°37' E 006°03'9 8.7
2016-May-24 07:33N 53°34' E 005°49'8 8.2
2016-May-24 06:33N 53°32' E 005°36'8 8.1
2016-May-24 05:33N 53°29' E 005°23'7 7.0
2016-May-24 04:32N 53°27' E 005°12'6 6.4
2016-May-24 03:33N 53°24' E 005°02'6 1.9
2016-May-24 00:28N 53°19' E 005°07'5 5.5
2016-May-23 23:33N 53°15' E 005°11'6 5.6
2016-May-23 22:33N 53°12' E 005°19'4 3.9
2016-May-23 21:33N 53°11' E 005°25'0 0.0
2016-May-23 20:33N 53°11' E 005°25'0 0.0
2016-May-23 19:32N 53°11' E 005°25'5 5.6
2016-May-23 18:34N 53°13' E 005°17'9 2.0
2016-May-23 14:14N 53°20' E 005°07'5 6.9
2016-May-23 13:30N 53°15' E 005°10'7 7.1
2016-May-23 12:33N 53°11' E 005°19'3 3.2
2016-May-23 11:31N 53°10' E 005°25'4 4.1
2016-May-23 10:33N 53°07' E 005°22'3 2.9
2016-May-23 09:32N 53°04' E 005°20'2 2.3
2016-May-23 08:31N 53°03' E 005°24'0 0.0
2016-May-23 07:32N 53°03' E 005°24'0 0.0
2016-May-23 06:32N 53°03' E 005°24'0 0.0
2016-May-23 05:32N 53°03' E 005°24'0 0.0
2016-May-22 20:30N 53°03' E 005°24'1 0.9
2016-May-22 19:33N 53°03' E 005°22'1 0.1
2016-May-22 10:25N 53°03' E 005°24'0 0.0
2016-May-22 06:08N 53°03' E 005°24'0 0.0
2016-May-21 12:31N 53°03' E 005°24'0 0.0
2016-May-21 11:31N 53°03' E 005°24'0 0.0
2016-May-21 10:32N 53°03' E 005°24'0 0.0
2016-May-21 09:32N 53°03' E 005°24'1 1.4
2016-May-21 08:33N 53°04' E 005°22'3 2.4
2016-May-21 07:31N 53°03' E 005°17'4 3.9
2016-May-21 06:32N 53°03' E 005°24'0 0.0
2016-May-21 05:33N 53°03' E 005°24'0 0.0
2016-May-20 14:30N 53°03' E 005°24'0 0.0
2016-May-20 13:33N 53°03' E 005°24'0 0.0
2016-May-20 12:33N 53°03' E 005°24'0 0.0
2016-May-20 11:33N 53°03' E 005°24'0 0.0
2016-May-20 10:33N 53°03' E 005°24'0 0.0
2016-May-20 09:33N 53°03' E 005°24'0 0.0
2016-May-20 08:33N 53°03' E 005°24'0 0.0
2016-May-20 07:33N 53°03' E 005°24'0 0.0
2016-May-20 06:33N 53°03' E 005°24'0 0.0
2016-May-20 05:33N 53°03' E 005°24'0 0.0
2016-May-19 16:28N 53°03' E 005°24'0 0.0
2016-May-19 15:31N 53°03' E 005°24'0 0.0
2016-May-19 14:32N 53°03' E 005°24'0 0.0
2016-May-19 13:32N 53°03' E 005°24'0 0.0
2016-May-19 12:32N 53°03' E 005°24'0 0.0
2016-May-19 11:32N 53°03' E 005°24'0 0.0
2016-May-19 10:32N 53°03' E 005°24'0 0.0
2016-May-19 09:32N 53°03' E 005°24'0 0.0
2016-May-19 08:32N 53°03' E 005°24'0 0.0
2016-May-19 07:32N 53°03' E 005°24'0 0.0
2016-May-19 06:32N 53°03' E 005°24'0 0.0
2016-May-18 14:29N 53°03' E 005°24'0 0.0
2016-May-18 13:32N 53°03' E 005°24'0 0.0
2016-May-18 12:32N 53°03' E 005°24'0 0.0
2016-May-18 11:09N 53°03' E 005°24'0 0.0
2016-May-18 10:33N 53°03' E 005°24'0 0.0
2016-May-18 09:32N 53°03' E 005°24'0 0.0
2016-May-18 08:32N 53°03' E 005°24'0 0.0
2016-May-18 07:32N 53°03' E 005°24'0 0.0
2016-May-18 06:32N 53°03' E 005°24'0 0.0
2016-May-18 05:32N 53°03' E 005°24'0 0.0
2016-May-17 14:27N 53°03' E 005°24'0 0.0
2016-May-17 13:33N 53°03' E 005°24'0 0.0
2016-May-17 12:33N 53°03' E 005°24'0 0.0
2016-May-17 11:33N 53°03' E 005°24'0 0.0
2016-May-17 10:33N 53°03' E 005°24'0 0.0
2016-May-17 09:33N 53°03' E 005°24'0 0.0
2016-May-17 08:33N 53°03' E 005°24'0 0.0
2016-May-17 07:33N 53°03' E 005°24'0 0.0
2016-May-17 06:06N 53°03' E 005°24'0 0.0
2016-May-15 13:32N 53°03' E 005°24'  
Track history (hours):
 
Tides and Currents Weather Stations Pressure Air Temp Water Temp Dewpoint Dewpoint Depression Visibility Wind Speed Wind Dir Waves Ship Positions

Aurelia

Last reported at 2016-May-24 19:14 UTC. Time now 2016-May-24 19:35 UTC.
Position N 53°59' E 008°15'.

Length 32 m; draft 3.8 m.

Type: Pleasure craft. MMSI: 244630125.

Date/timePositionNaut miles runAvg speedWind from/ knotsBaromVisibWave heightAir tempDewpointWater temp
2016-May-24 19:14N 53°59' E 008°15'5 7.6
2016-May-24 18:32N 53°58' E 008°06'17 7.2
2016-May-24 16:07N 53°54' E 007°38'3 5.3
2016-May-24 15:33N 53°53' E 007°33'6 6.0
2016-May-24 14:33N 53°51' E 007°23'7 7.4
2016-May-24 13:33N 53°48' E 007°11'8 7.8
2016-May-24 12:33N 53°46' E 006°59'9 8.7
2016-May-24 11:33N 53°43' E 006°45'8 8.4
2016-May-24 10:33N 53°40' E 006°32'9 8.6
2016-May-24 09:33N 53°39' E 006°17'9 8.8
2016-May-24 08:32N 53°37' E 006°03'9 8.7
2016-May-24 07:33N 53°34' E 005°49'8 8.2
2016-May-24 06:33N 53°32' E 005°36'8 8.1
2016-May-24 05:33N 53°29' E 005°23'7 7.0
2016-May-24 04:32N 53°27' E 005°12'6 6.4
2016-May-24 03:33N 53°24' E 005°02'6 1.9
2016-May-24 00:28N 53°19' E 005°07'5 5.5
2016-May-23 23:33N 53°15' E 005°11'6 5.6
2016-May-23 22:33N 53°12' E 005°19'4 3.9
2016-May-23 21:33N 53°11' E 005°25'0 0.0
2016-May-23 20:33N 53°11' E 005°25'0 0.0
2016-May-23 19:32N 53°11' E 005°25'5 5.6
2016-May-23 18:34N 53°13' E 005°17'9 2.0
2016-May-23 14:14N 53°20' E 005°07'5 6.9
2016-May-23 13:30N 53°15' E 005°10'7 7.1
2016-May-23 12:33N 53°11' E 005°19'3 3.2
2016-May-23 11:31N 53°10' E 005°25'4 4.1
2016-May-23 10:33N 53°07' E 005°22'3 2.9
2016-May-23 09:32N 53°04' E 005°20'2 2.3
2016-May-23 08:31N 53°03' E 005°24'0 0.0
2016-May-23 07:32N 53°03' E 005°24'0 0.0
2016-May-23 06:32N 53°03' E 005°24'0 0.0
2016-May-23 05:32N 53°03' E 005°24'0 0.0
2016-May-22 20:30N 53°03' E 005°24'1 0.9
2016-May-22 19:33N 53°03' E 005°22'1 0.1
2016-May-22 10:25N 53°03' E 005°24'0 0.0
2016-May-22 06:08N 53°03' E 005°24'0 0.0
2016-May-21 12:31N 53°03' E 005°24'0 0.0
2016-May-21 11:31N 53°03' E 005°24'0 0.0
2016-May-21 10:32N 53°03' E 005°24'0 0.0
2016-May-21 09:32N 53°03' E 005°24'1 1.4
2016-May-21 08:33N 53°04' E 005°22'3 2.4
2016-May-21 07:31N 53°03' E 005°17'4 3.9
2016-May-21 06:32N 53°03' E 005°24'0 0.0
2016-May-21 05:33N 53°03' E 005°24'0 0.0
2016-May-20 14:30N 53°03' E 005°24'0 0.0
2016-May-20 13:33N 53°03' E 005°24'0 0.0
2016-May-20 12:33N 53°03' E 005°24'0 0.0
2016-May-20 11:33N 53°03' E 005°24'0 0.0
2016-May-20 10:33N 53°03' E 005°24'0 0.0
2016-May-20 09:33N 53°03' E 005°24'0 0.0
2016-May-20 08:33N 53°03' E 005°24'0 0.0
2016-May-20 07:33N 53°03' E 005°24'0 0.0
2016-May-20 06:33N 53°03' E 005°24'0 0.0
2016-May-20 05:33N 53°03' E 005°24'0 0.0
2016-May-19 16:28N 53°03' E 005°24'0 0.0
2016-May-19 15:31N 53°03' E 005°24'0 0.0
2016-May-19 14:32N 53°03' E 005°24'0 0.0
2016-May-19 13:32N 53°03' E 005°24'0 0.0
2016-May-19 12:32N 53°03' E 005°24'0 0.0
2016-May-19 11:32N 53°03' E 005°24'0 0.0
2016-May-19 10:32N 53°03' E 005°24'0 0.0
2016-May-19 09:32N 53°03' E 005°24'0 0.0
2016-May-19 08:32N 53°03' E 005°24'0 0.0
2016-May-19 07:32N 53°03' E 005°24'0 0.0
2016-May-19 06:32N 53°03' E 005°24'0 0.0
2016-May-18 14:29N 53°03' E 005°24'0 0.0
2016-May-18 13:32N 53°03' E 005°24'0 0.0
2016-May-18 12:32N 53°03' E 005°24'0 0.0
2016-May-18 11:09N 53°03' E 005°24'0 0.0
2016-May-18 10:33N 53°03' E 005°24'0 0.0
2016-May-18 09:32N 53°03' E 005°24'0 0.0
2016-May-18 08:32N 53°03' E 005°24'0 0.0
2016-May-18 07:32N 53°03' E 005°24'0 0.0
2016-May-18 06:32N 53°03' E 005°24'0 0.0
2016-May-18 05:32N 53°03' E 005°24'0 0.0
2016-May-17 14:27N 53°03' E 005°24'0 0.0
2016-May-17 13:33N 53°03' E 005°24'0 0.0
2016-May-17 12:33N 53°03' E 005°24'0 0.0
2016-May-17 11:33N 53°03' E 005°24'0 0.0
2016-May-17 10:33N 53°03' E 005°24'0 0.0
2016-May-17 09:33N 53°03' E 005°24'0 0.0
2016-May-17 08:33N 53°03' E 005°24'0 0.0
2016-May-17 07:33N 53°03' E 005°24'0 0.0
2016-May-17 06:06N 53°03' E 005°24'0 0.0
2016-May-15 13:32N 53°03' E 005°24'  

Dump ship's entire track history